Terminal Aerodrome Forecast
Issued by NWS Pocatello, ID

Home | Current Version | Previous Version | Text Only | Print | Product List | Glossary On
Versions: 1 2 3 4 5 6 7 8 9 10 11 12 13 14
000
FTUS45 KPIH 270200 AAA
TAFBYI
TAF AMD
KBYI 270224Z 2702/2724 25007KT P6SM VCSH BKN060
      TEMPO 2702/2704 1 1/2SM -SN FEW015 BKN020
     FM270400 15007KT P6SM SCT040 BKN100
     FM271400 11008KT P6SM VCSH SCT030 OVC050=

USA.gov is the U.S. government's official web portal to all federal, state and local government web resources and services.